Time,TemperatureF,DewpointF,PressureIn,WindDirection,WindDirectionDegrees,WindSpeedMPH,WindSpeedGustMPH,Humidity,HourlyPrecipIn,Conditions,Clouds,dailyrainin,SoftwareType,DateUTC
2013-02-21 00:00:00,39.8,37.9,29.95,ENE,68,0.0,0.0,93,0.00,,,0.00,WUHU216HW,2013-02-21 08:00:00,
2013-02-21 00:05:00,39.8,37.9,29.94,ENE,68,0.9,0.9,93,0.00,,,0.00,WUHU216HW,2013-02-21 08:05:00,
2013-02-21 00:10:00,39.8,37.9,29.95,East,90,0.0,1.1,93,0.00,,,0.00,WUHU216HW,2013-02-21 08:10:00,
2013-02-21 00:15:00,39.8,37.9,29.96,East,90,0.0,1.1,93,0.00,,,0.00,WUHU216HW,2013-02-21 08:15:00,
2013-02-21 00:20:00,39.8,37.9,29.96,East,90,0.0,0.2,93,0.00,,,0.00,WUHU216HW,2013-02-21 08:20:00,
2013-02-21 00:25:00,39.8,37.9,29.96,East,90,0.0,0.0,93,0.00,,,0.00,WUHU216HW,2013-02-21 08:25:00,
2013-02-21 00:30:00,40.0,38.1,29.96,East,90,0.0,0.0,93,0.00,,,0.00,WUHU216HW,2013-02-21 08:30:00,
2013-02-21 00:35:00,40.0,38.1,29.96,East,90,0.0,0.0,93,0.00,,,0.00,WUHU216HW,2013-02-21 08:35:00,
2013-02-21 00:40:00,40.0,38.1,29.96,East,90,0.0,0.0,93,0.00,,,0.00,WUHU216HW,2013-02-21 08:40:00,
2013-02-21 00:45:00,40.0,38.1,29.96,ENE,68,0.7,0.7,93,0.00,,,0.00,WUHU216HW,2013-02-21 08:45:00,
2013-02-21 00:50:00,40.0,38.1,29.96,ENE,68,0.0,0.7,93,0.00,,,0.00,WUHU216HW,2013-02-21 08:50:00,
2013-02-21 00:55:00,40.0,38.1,29.96,ENE,68,0.0,0.2,93,0.00,,,0.00,WUHU216HW,2013-02-21 08:55:00,
2013-02-21 01:00:00,40.1,38.3,29.97,ENE,68,0.0,0.0,93,0.00,,,0.00,WUHU216HW,2013-02-21 09:00:00,
2013-02-21 01:05:00,40.1,38.3,29.97,ENE,68,0.0,0.0,93,0.00,,,0.00,WUHU216HW,2013-02-21 09:05:00,
2013-02-21 01:10:00,40.1,38.3,29.97,ENE,68,0.0,0.0,93,0.00,,,0.00,WUHU216HW,2013-02-21 09:10:00,
2013-02-21 01:15:00,40.1,38.3,29.98,ENE,68,0.0,0.4,93,0.00,,,0.00,WUHU216HW,2013-02-21 09:15:00,
2013-02-21 01:20:00,40.1,38.3,29.98,WNW,293,0.0,1.3,93,0.00,,,0.00,WUHU216HW,2013-02-21 09:20:00,
2013-02-21 01:25:00,40.3,38.4,29.97,East,90,0.0,1.3,93,0.00,,,0.00,WUHU216HW,2013-02-21 09:25:00,
2013-02-21 01:30:00,40.3,38.4,29.96,East,90,0.0,0.4,93,0.00,,,0.00,WUHU216HW,2013-02-21 09:30:00,
2013-02-21 01:35:00,40.3,38.4,29.97,East,90,0.0,0.2,93,0.00,,,0.00,WUHU216HW,2013-02-21 09:35:00,
2013-02-21 01:40:00,40.3,38.4,29.97,East,90,0.0,0.2,93,0.00,,,0.00,WUHU216HW,2013-02-21 09:40:00,
2013-02-21 01:45:00,40.3,38.4,29.98,East,90,0.0,0.0,93,0.00,,,0.00,WUHU216HW,2013-02-21 09:45:00,
2013-02-21 01:50:00,40.3,38.4,29.98,East,90,0.0,0.0,93,0.00,,,0.00,WUHU216HW,2013-02-21 09:50:00,
2013-02-21 01:55:00,40.3,38.4,29.99,East,90,0.0,0.0,93,0.00,,,0.00,WUHU216HW,2013-02-21 09:55:00,
2013-02-21 02:00:00,40.3,38.4,29.98,East,90,0.0,0.0,93,0.00,,,0.00,WUHU216HW,2013-02-21 10:00:00,
2013-02-21 02:05:00,40.5,38.9,29.96,East,90,0.0,0.0,94,0.00,,,0.00,WUHU216HW,2013-02-21 10:05:00,
2013-02-21 02:10:00,40.3,38.7,29.97,ESE,113,0.4,0.7,94,0.00,,,0.00,WUHU216HW,2013-02-21 10:10:00,
2013-02-21 02:15:00,40.3,38.7,29.97,ESE,113,0.0,0.7,94,0.00,,,0.00,WUHU216HW,2013-02-21 10:15:00,
2013-02-21 02:20:00,40.3,38.7,29.97,WSW,248,0.4,1.1,94,0.00,,,0.00,WUHU216HW,2013-02-21 10:20:00,
2013-02-21 02:25:00,40.3,38.7,29.98,SSE,158,0.0,2.2,94,0.00,,,0.00,WUHU216HW,2013-02-21 10:25:00,
2013-02-21 02:30:00,40.3,38.7,29.98,West,270,0.2,2.2,94,0.01,,,0.00,WUHU216HW,2013-02-21 10:30:00,
2013-02-21 02:35:00,40.3,38.7,29.98,SW,225,0.2,1.8,94,0.01,,,0.00,WUHU216HW,2013-02-21 10:35:00,
2013-02-21 02:40:00,40.3,38.7,29.98,SSW,203,0.7,1.8,94,0.01,,,0.00,WUHU216HW,2013-02-21 10:40:00,
2013-02-21 02:45:00,40.3,38.7,29.96,SSW,203,0.9,0.9,94,0.01,,,0.00,WUHU216HW,2013-02-21 10:45:00,
2013-02-21 02:50:00,40.3,38.4,29.97,SSE,158,0.0,1.1,93,0.01,,,0.00,WUHU216HW,2013-02-21 10:50:00,
2013-02-21 02:55:00,40.3,38.4,29.96,SSE,158,0.4,1.1,93,0.01,,,0.00,WUHU216HW,2013-02-21 10:55:00,
2013-02-21 03:00:00,40.3,38.4,29.97,SSE,158,0.4,0.9,93,0.02,,,0.00,WUHU216HW,2013-02-21 11:00:00,
2013-02-21 03:05:00,40.3,38.4,29.98,WSW,248,0.0,1.3,93,0.02,,,0.00,WUHU216HW,2013-02-21 11:05:00,
2013-02-21 03:10:00,40.1,38.3,29.98,West,270,0.2,1.3,93,0.02,,,0.00,WUHU216HW,2013-02-21 11:10:00,
2013-02-21 03:15:00,40.1,38.3,29.98,WNW,293,0.2,0.7,93,0.02,,,0.00,WUHU216HW,2013-02-21 11:15:00,
2013-02-21 03:20:00,40.3,38.4,29.97,West,270,0.0,0.4,93,0.02,,,0.00,WUHU216HW,2013-02-21 11:20:00,
2013-02-21 03:25:00,40.1,38.3,29.97,SSE,158,0.4,1.1,93,0.01,,,0.00,WUHU216HW,2013-02-21 11:25:00,
2013-02-21 03:30:00,40.1,38.3,29.96,SE,135,0.4,1.1,93,0.01,,,0.00,WUHU216HW,2013-02-21 11:30:00,
2013-02-21 03:35:00,40.1,38.5,29.95,SE,135,0.9,1.1,94,0.02,,,0.00,WUHU216HW,2013-02-21 11:35:00,
2013-02-21 03:40:00,40.1,38.3,29.95,SSW,203,0.4,1.1,93,0.02,,,0.00,WUHU216HW,2013-02-21 11:40:00,
2013-02-21 03:45:00,40.1,38.3,29.96,WNW,293,0.2,1.1,93,0.02,,,0.00,WUHU216HW,2013-02-21 11:45:00,
2013-02-21 03:50:00,40.1,38.3,29.96,SE,135,1.1,1.1,93,0.02,,,0.00,WUHU216HW,2013-02-21 11:50:00,
2013-02-21 03:55:00,40.1,38.3,29.96,South,180,0.4,1.3,93,0.02,,,0.00,WUHU216HW,2013-02-21 11:55:00,
2013-02-21 04:00:00,40.1,38.3,29.97,South,180,0.2,1.3,93,0.01,,,0.00,WUHU216HW,2013-02-21 12:00:00,
2013-02-21 04:05:00,40.3,38.7,29.96,SW,225,0.2,0.7,94,0.01,,,0.00,WUHU216HW,2013-02-21 12:05:00,
2013-02-21 04:10:00,40.3,38.7,29.96,SSE,158,0.0,1.3,94,0.01,,,0.00,WUHU216HW,2013-02-21 12:10:00,
2013-02-21 04:15:00,40.3,38.7,29.96,SSE,158,0.4,1.8,94,0.01,,,0.00,WUHU216HW,2013-02-21 12:15:00,
2013-02-21 04:20:00,40.3,38.7,29.96,SSW,203,0.4,1.8,94,0.01,,,0.00,WUHU216HW,2013-02-21 12:20:00,
2013-02-21 04:25:00,40.3,38.7,29.96,SSE,158,0.9,1.8,94,0.01,,,0.00,WUHU216HW,2013-02-21 12:25:00,
2013-02-21 04:30:00,40.3,38.7,29.96,SE,135,1.6,1.8,94,0.00,,,0.00,WUHU216HW,2013-02-21 12:30:00,
2013-02-21 04:35:00,40.3,38.7,29.96,South,180,1.8,1.8,94,0.00,,,0.00,WUHU216HW,2013-02-21 12:35:00,
2013-02-21 04:40:00,40.5,39.2,29.96,SSE,158,0.4,1.8,95,0.00,,,0.00,WUHU216HW,2013-02-21 12:40:00,
2013-02-21 04:45:00,40.5,38.9,29.96,South,180,1.8,1.8,94,0.00,,,0.00,WUHU216HW,2013-02-21 12:45:00,
2013-02-21 04:50:00,40.5,39.2,29.96,SSE,158,0.9,2.2,95,0.00,,,0.00,WUHU216HW,2013-02-21 12:50:00,
2013-02-21 04:55:00,40.5,39.2,29.96,WSW,248,1.1,2.5,95,0.00,,,0.00,WUHU216HW,2013-02-21 12:55:00,
2013-02-21 05:00:00,40.5,39.2,29.96,West,270,0.4,2.5,95,0.00,,,0.00,WUHU216HW,2013-02-21 13:00:00,
2013-02-21 05:05:00,40.7,39.1,29.97,WSW,248,0.0,3.4,94,0.00,,,0.00,WUHU216HW,2013-02-21 13:05:00,
2013-02-21 05:10:00,40.7,39.3,29.96,WSW,248,3.4,3.4,95,0.00,,,0.00,WUHU216HW,2013-02-21 13:10:00,
2013-02-21 05:15:00,40.7,39.3,29.97,West,270,2.5,4.7,95,0.00,,,0.00,WUHU216HW,2013-02-21 13:15:00,
2013-02-21 05:20:00,40.7,39.1,29.97,WSW,248,1.8,4.9,94,0.00,,,0.00,WUHU216HW,2013-02-21 13:20:00,
2013-02-21 05:25:00,40.7,39.1,29.96,SSW,203,2.5,4.9,94,0.00,,,0.00,WUHU216HW,2013-02-21 13:25:00,
2013-02-21 05:30:00,40.7,39.1,29.96,SW,225,2.5,2.9,94,0.00,,,0.00,WUHU216HW,2013-02-21 13:30:00,
2013-02-21 05:35:00,40.7,38.8,29.96,WSW,248,5.4,5.4,93,0.00,,,0.00,WUHU216HW,2013-02-21 13:35:00,
2013-02-21 05:40:00,40.7,38.8,29.96,SSE,158,2.5,5.4,93,0.00,,,0.00,WUHU216HW,2013-02-21 13:40:00,
2013-02-21 05:45:00,40.7,38.8,29.96,NW,315,3.1,4.3,93,0.00,,,0.00,WUHU216HW,2013-02-21 13:45:00,
2013-02-21 05:50:00,40.7,38.8,29.96,WSW,248,1.1,4.9,93,0.00,,,0.00,WUHU216HW,2013-02-21 13:50:00,
2013-02-21 05:55:00,40.7,38.5,29.96,NNW,338,1.8,4.9,92,0.00,,,0.00,WUHU216HW,2013-02-21 13:55:00,
2013-02-21 06:00:00,40.7,38.5,29.96,WSW,248,2.0,4.0,92,0.00,,,0.00,WUHU216HW,2013-02-21 14:00:00,
2013-02-21 06:05:00,40.7,38.5,29.96,SW,225,2.2,4.0,92,0.00,,,0.00,WUHU216HW,2013-02-21 14:05:00,
2013-02-21 06:10:00,40.7,38.5,29.97,WSW,248,2.5,5.4,92,0.00,,,0.00,WUHU216HW,2013-02-21 14:10:00,
2013-02-21 06:15:00,40.9,38.7,29.97,SW,225,1.1,5.4,92,0.00,,,0.00,WUHU216HW,2013-02-21 14:15:00,
2013-02-21 06:20:00,40.9,38.7,29.97,WNW,293,1.3,2.9,92,0.00,,,0.00,WUHU216HW,2013-02-21 14:20:00,
2013-02-21 06:25:00,40.9,38.7,29.97,SW,225,1.8,5.4,92,0.00,,,0.00,WUHU216HW,2013-02-21 14:25:00,
2013-02-21 06:30:00,40.9,38.7,29.97,ESE,113,1.8,5.4,92,0.00,,,0.00,WUHU216HW,2013-02-21 14:30:00,
2013-02-21 06:35:00,41.0,38.9,29.97,NE,45,2.0,3.6,92,0.00,,,0.00,WUHU216HW,2013-02-21 14:35:00,
2013-02-21 06:40:00,41.0,38.9,29.97,WSW,248,1.8,2.9,92,0.00,,,0.00,WUHU216HW,2013-02-21 14:40:00,
2013-02-21 06:45:00,41.0,38.9,29.97,SSE,158,1.6,2.9,92,0.00,,,0.00,WUHU216HW,2013-02-21 14:45:00,
2013-02-21 06:50:00,41.0,38.9,29.97,SSW,203,2.5,3.8,92,0.00,,,0.00,WUHU216HW,2013-02-21 14:50:00,
2013-02-21 06:55:00,41.0,38.9,29.98,South,180,1.1,3.8,92,0.00,,,0.00,WUHU216HW,2013-02-21 14:55:00,
2013-02-21 07:00:00,41.0,38.9,29.98,SW,225,2.5,2.9,92,0.00,,,0.00,WUHU216HW,2013-02-21 15:00:00,
2013-02-21 07:05:00,41.2,39.1,29.98,SSW,203,1.1,3.4,92,0.00,,,0.00,WUHU216HW,2013-02-21 15:05:00,
2013-02-21 07:10:00,41.2,38.8,29.98,SSE,158,1.1,3.4,91,0.00,,,0.00,WUHU216HW,2013-02-21 15:10:00,
2013-02-21 07:15:00,41.2,38.8,29.98,SSW,203,1.1,3.4,91,0.00,,,0.00,WUHU216HW,2013-02-21 15:15:00,
2013-02-21 07:20:00,41.2,38.8,29.98,NW,315,1.8,2.5,91,0.00,,,0.00,WUHU216HW,2013-02-21 15:20:00,
2013-02-21 07:25:00,41.4,38.7,29.98,WSW,248,1.1,4.5,90,0.00,,,0.00,WUHU216HW,2013-02-21 15:25:00,
2013-02-21 07:30:00,41.4,38.7,29.98,NNE,23,2.7,4.5,90,0.00,,,0.00,WUHU216HW,2013-02-21 15:30:00,
2013-02-21 07:35:00,41.4,38.7,29.99,SE,135,1.1,3.1,90,0.00,,,0.00,WUHU216HW,2013-02-21 15:35:00,
2013-02-21 07:40:00,41.4,38.7,29.99,West,270,3.8,3.8,90,0.00,,,0.00,WUHU216HW,2013-02-21 15:40:00,
2013-02-21 07:45:00,41.6,38.9,29.99,SW,225,0.9,3.8,90,0.00,,,0.00,WUHU216HW,2013-02-21 15:45:00,
2013-02-21 07:50:00,41.6,38.9,29.98,WSW,248,2.2,4.7,90,0.00,,,0.00,WUHU216HW,2013-02-21 15:50:00,
2013-02-21 07:55:00,41.6,38.6,29.98,South,180,3.4,5.4,89,0.00,,,0.00,WUHU216HW,2013-02-21 15:55:00,
2013-02-21 08:00:00,41.6,38.6,29.98,WSW,248,2.2,5.4,89,0.00,,,0.00,WUHU216HW,2013-02-21 16:00:00,
2013-02-21 08:05:00,41.8,38.8,29.98,SSE,158,2.5,6.3,89,0.00,,,0.00,WUHU216HW,2013-02-21 16:05:00,
2013-02-21 08:10:00,41.8,38.8,29.99,WSW,248,0.9,6.3,89,0.00,,,0.00,WUHU216HW,2013-02-21 16:10:00,
2013-02-21 08:15:00,41.8,38.8,29.99,SSW,203,1.8,4.9,89,0.00,,,0.00,WUHU216HW,2013-02-21 16:15:00,
2013-02-21 08:20:00,41.8,38.8,29.99,NW,315,4.3,4.5,89,0.00,,,0.00,WUHU216HW,2013-02-21 16:20:00,
2013-02-21 08:25:00,41.8,38.8,29.99,SE,135,1.3,5.1,89,0.00,,,0.00,WUHU216HW,2013-02-21 16:25:00,
2013-02-21 08:30:00,41.8,38.8,29.98,WSW,248,1.8,5.1,89,0.00,,,0.00,WUHU216HW,2013-02-21 16:30:00,
2013-02-21 08:35:00,41.8,38.8,29.99,SSE,158,0.9,4.7,89,0.00,,,0.00,WUHU216HW,2013-02-21 16:35:00,
2013-02-21 08:40:00,41.9,38.4,29.99,SSW,203,2.0,4.0,87,0.00,,,0.00,WUHU216HW,2013-02-21 16:40:00,
2013-02-21 08:45:00,41.9,38.4,29.99,SSW,203,1.1,5.4,87,0.00,,,0.00,WUHU216HW,2013-02-21 16:45:00,
2013-02-21 08:50:00,42.1,38.5,29.99,SSW,203,2.2,5.4,87,0.00,,,0.00,WUHU216HW,2013-02-21 16:50:00,
2013-02-21 08:55:00,41.9,38.4,29.99,South,180,2.0,4.7,87,0.00,,,0.00,WUHU216HW,2013-02-21 16:55:00,
2013-02-21 09:00:00,41.9,38.4,29.99,SW,225,0.4,4.7,87,0.00,,,0.00,WUHU216HW,2013-02-21 17:00:00,
2013-02-21 09:05:00,41.9,38.4,29.99,WNW,293,1.3,3.8,87,0.00,,,0.00,WUHU216HW,2013-02-21 17:05:00,
2013-02-21 09:10:00,41.9,38.4,29.99,SSW,203,2.2,3.8,87,0.00,,,0.00,WUHU216HW,2013-02-21 17:10:00,
2013-02-21 09:15:00,41.9,38.4,29.99,SW,225,5.4,5.4,87,0.00,,,0.00,WUHU216HW,2013-02-21 17:15:00,
2013-02-21 09:20:00,41.9,38.4,29.99,WSW,248,1.3,5.8,87,0.00,,,0.00,WUHU216HW,2013-02-21 17:20:00,
2013-02-21 09:25:00,41.9,38.0,29.99,West,270,2.5,5.8,86,0.00,,,0.00,WUHU216HW,2013-02-21 17:25:00,
2013-02-21 09:30:00,41.9,38.0,29.98,SE,135,1.8,7.2,86,0.00,,,0.00,WUHU216HW,2013-02-21 17:30:00,
2013-02-21 09:35:00,42.1,38.2,29.98,WSW,248,6.0,7.2,86,0.00,,,0.00,WUHU216HW,2013-02-21 17:35:00,
2013-02-21 09:40:00,42.1,38.2,29.98,WSW,248,4.0,6.0,86,0.00,,,0.00,WUHU216HW,2013-02-21 17:40:00,
2013-02-21 09:45:00,42.1,38.2,29.98,SW,225,4.7,5.4,86,0.00,,,0.00,WUHU216HW,2013-02-21 17:45:00,
2013-02-21 09:50:00,42.3,38.3,29.98,North,0,1.1,4.7,86,0.00,,,0.00,WUHU216HW,2013-02-21 17:50:00,
2013-02-21 09:55:00,42.3,38.7,29.99,WSW,248,2.2,4.3,87,0.00,,,0.00,WUHU216HW,2013-02-21 17:55:00,
2013-02-21 10:00:00,42.5,38.5,29.99,WSW,248,5.4,5.4,86,0.00,,,0.00,WUHU216HW,2013-02-21 18:00:00,
2013-02-21 10:05:00,42.5,38.5,29.99,West,270,1.3,5.4,86,0.00,,,0.00,WUHU216HW,2013-02-21 18:05:00,
2013-02-21 10:10:00,42.5,38.5,29.99,SE,135,2.2,4.3,86,0.00,,,0.00,WUHU216HW,2013-02-21 18:10:00,
2013-02-21 10:15:00,42.5,38.5,29.99,SSE,158,4.0,4.3,86,0.00,,,0.00,WUHU216HW,2013-02-21 18:15:00,
2013-02-21 10:20:00,42.5,38.5,29.98,WSW,248,5.4,5.4,86,0.00,,,0.00,WUHU216HW,2013-02-21 18:20:00,
2013-02-21 10:25:00,42.5,38.3,29.99,West,270,4.7,5.4,85,0.00,,,0.00,WUHU216HW,2013-02-21 18:25:00,
2013-02-21 10:30:00,42.5,38.3,29.99,WSW,248,5.4,5.4,85,0.00,,,0.00,WUHU216HW,2013-02-21 18:30:00,
2013-02-21 10:35:00,42.5,38.5,29.99,WSW,248,3.8,5.4,86,0.00,,,0.00,WUHU216HW,2013-02-21 18:35:00,
2013-02-21 10:40:00,42.5,38.5,29.99,WSW,248,3.4,4.7,86,0.00,,,0.00,WUHU216HW,2013-02-21 18:40:00,
2013-02-21 10:45:00,42.5,38.5,29.99,SSE,158,2.2,4.7,86,0.00,,,0.00,WUHU216HW,2013-02-21 18:45:00,
2013-02-21 10:50:00,42.5,38.5,29.99,WSW,248,2.0,5.6,86,0.00,,,0.00,WUHU216HW,2013-02-21 18:50:00,
2013-02-21 10:55:00,42.3,38.1,29.99,SSE,158,2.9,5.8,85,0.00,,,0.00,WUHU216HW,2013-02-21 18:55:00,
2013-02-21 11:00:00,42.5,38.3,29.99,SSE,158,1.8,5.8,85,0.00,,,0.00,WUHU216HW,2013-02-21 19:00:00,
2013-02-21 11:05:00,42.5,38.3,29.99,WSW,248,3.4,5.8,85,0.00,,,0.00,WUHU216HW,2013-02-21 19:05:00,
2013-02-21 11:10:00,42.3,38.1,29.99,WSW,248,5.8,5.8,85,0.00,,,0.00,WUHU216HW,2013-02-21 19:10:00,
2013-02-21 11:15:00,42.1,38.2,29.99,SSW,203,4.7,5.8,86,0.00,,,0.00,WUHU216HW,2013-02-21 19:15:00,
2013-02-21 11:20:00,42.1,38.2,29.99,NE,45,2.7,5.4,86,0.00,,,0.00,WUHU216HW,2013-02-21 19:20:00,
2013-02-21 11:25:00,42.1,38.2,29.99,NW,315,2.9,5.4,86,0.00,,,0.00,WUHU216HW,2013-02-21 19:25:00,
2013-02-21 11:30:00,42.1,38.2,29.99,NNW,338,5.1,5.1,86,0.00,,,0.00,WUHU216HW,2013-02-21 19:30:00,
2013-02-21 11:35:00,42.1,38.2,29.99,SSE,158,5.4,5.8,86,0.00,,,0.00,WUHU216HW,2013-02-21 19:35:00,
2013-02-21 11:40:00,42.1,38.2,29.98,WSW,248,4.7,6.0,86,0.00,,,0.00,WUHU216HW,2013-02-21 19:40:00,
2013-02-21 11:45:00,42.3,38.1,29.98,SW,225,5.4,6.0,85,0.00,,,0.00,WUHU216HW,2013-02-21 19:45:00,
2013-02-21 11:50:00,42.1,37.9,29.98,West,270,1.8,12.1,85,0.00,,,0.00,WUHU216HW,2013-02-21 19:50:00,
2013-02-21 11:55:00,42.5,38.3,29.98,SW,225,2.2,12.1,85,0.00,,,0.00,WUHU216HW,2013-02-21 19:55:00,
2013-02-21 12:00:00,42.7,38.4,29.98,SSE,158,2.9,2.9,85,0.00,,,0.00,WUHU216HW,2013-02-21 20:00:00,
2013-02-21 12:05:00,42.8,38.6,29.98,South,180,4.5,5.1,85,0.00,,,0.00,WUHU216HW,2013-02-21 20:05:00,
2013-02-21 12:10:00,42.8,38.6,29.98,WSW,248,6.9,8.3,85,0.00,,,0.00,WUHU216HW,2013-02-21 20:10:00,
2013-02-21 12:15:00,42.8,38.6,29.98,SW,225,2.5,8.3,85,0.00,,,0.00,WUHU216HW,2013-02-21 20:15:00,
2013-02-21 12:20:00,42.8,38.6,29.98,SW,225,3.4,6.3,85,0.00,,,0.00,WUHU216HW,2013-02-21 20:20:00,
2013-02-21 12:25:00,42.8,38.4,29.99,ESE,113,2.2,4.9,84,0.00,,,0.00,WUHU216HW,2013-02-21 20:25:00,
2013-02-21 12:30:00,43.0,38.8,29.98,SSE,158,1.1,6.3,85,0.00,,,0.00,WUHU216HW,2013-02-21 20:30:00,
2013-02-21 12:35:00,43.0,38.8,29.98,East,90,1.8,6.3,85,0.00,,,0.00,WUHU216HW,2013-02-21 20:35:00,
2013-02-21 12:40:00,42.8,38.4,29.98,SSW,203,3.8,4.7,84,0.00,,,0.00,WUHU216HW,2013-02-21 20:40:00,
2013-02-21 12:45:00,42.8,38.4,29.98,SSE,158,2.5,5.4,84,0.00,,,0.00,WUHU216HW,2013-02-21 20:45:00,
2013-02-21 12:50:00,42.8,38.6,29.98,SSE,158,1.6,5.4,85,0.00,,,0.00,WUHU216HW,2013-02-21 20:50:00,
2013-02-21 12:55:00,42.8,38.4,29.98,SE,135,2.5,6.9,84,0.00,,,0.00,WUHU216HW,2013-02-21 20:55:00,
2013-02-21 13:00:00,42.8,38.4,29.98,SE,135,1.8,6.9,84,0.00,,,0.00,WUHU216HW,2013-02-21 21:00:00,
2013-02-21 13:05:00,42.7,38.4,29.98,SW,225,1.1,4.3,85,0.00,,,0.00,WUHU216HW,2013-02-21 21:05:00,
2013-02-21 13:10:00,42.7,38.4,29.98,SSW,203,4.3,4.3,85,0.00,,,0.00,WUHU216HW,2013-02-21 21:10:00,
2013-02-21 13:15:00,42.5,38.3,29.98,SSW,203,3.8,7.6,85,0.00,,,0.00,WUHU216HW,2013-02-21 21:15:00,
2013-02-21 13:20:00,42.5,38.3,29.97,South,180,3.1,7.6,85,0.00,,,0.00,WUHU216HW,2013-02-21 21:20:00,
2013-02-21 13:25:00,42.5,38.3,29.97,South,180,2.0,3.4,85,0.00,,,0.00,WUHU216HW,2013-02-21 21:25:00,
2013-02-21 13:30:00,42.5,38.3,29.97,SSW,203,5.4,5.4,85,0.00,,,0.00,WUHU216HW,2013-02-21 21:30:00,
2013-02-21 13:35:00,42.5,38.3,29.97,NNW,338,3.4,5.4,85,0.00,,,0.00,WUHU216HW,2013-02-21 21:35:00,
2013-02-21 13:40:00,42.5,38.5,29.96,WSW,248,4.5,5.4,86,0.00,,,0.00,WUHU216HW,2013-02-21 21:40:00,
2013-02-21 13:45:00,42.5,38.5,29.96,SW,225,3.4,5.4,86,0.00,,,0.00,WUHU216HW,2013-02-21 21:45:00,
2013-02-21 13:50:00,42.3,38.7,29.96,NW,315,3.4,3.8,87,0.00,,,0.00,WUHU216HW,2013-02-21 21:50:00,
2013-02-21 13:55:00,42.3,38.7,29.96,WNW,293,2.5,3.8,87,0.00,,,0.00,WUHU216HW,2013-02-21 21:55:00,
2013-02-21 14:00:00,42.3,38.7,29.96,SSE,158,1.1,3.8,87,0.00,,,0.00,WUHU216HW,2013-02-21 22:00:00,
2013-02-21 14:05:00,42.3,38.7,29.96,South,180,0.4,2.5,87,0.00,,,0.00,WUHU216HW,2013-02-21 22:05:00,
2013-02-21 14:10:00,42.3,39.0,29.96,ESE,113,1.6,2.5,88,0.00,,,0.00,WUHU216HW,2013-02-21 22:10:00,
2013-02-21 14:15:00,42.3,39.3,29.96,NE,45,2.2,2.7,89,0.00,,,0.00,WUHU216HW,2013-02-21 22:15:00,
2013-02-21 14:20:00,42.5,39.5,29.96,SW,225,1.1,2.7,89,0.00,,,0.00,WUHU216HW,2013-02-21 22:20:00,
2013-02-21 14:25:00,42.5,39.5,29.96,WSW,248,1.8,2.7,89,0.00,,,0.00,WUHU216HW,2013-02-21 22:25:00,
2013-02-21 14:30:00,42.5,39.5,29.95,WNW,293,2.0,2.7,89,0.00,,,0.00,WUHU216HW,2013-02-21 22:30:00,
2013-02-21 14:35:00,42.7,39.7,29.95,SW,225,3.1,3.1,89,0.00,,,0.00,WUHU216HW,2013-02-21 22:35:00,
2013-02-21 14:40:00,42.5,39.5,29.96,SW,225,2.0,4.7,89,0.00,,,0.00,WUHU216HW,2013-02-21 22:40:00,
2013-02-21 14:45:00,42.5,39.5,29.96,South,180,0.4,4.7,89,0.00,,,0.00,WUHU216HW,2013-02-21 22:45:00,
2013-02-21 14:50:00,42.7,39.7,29.96,WSW,248,2.5,4.0,89,0.00,,,0.00,WUHU216HW,2013-02-21 22:50:00,
2013-02-21 14:55:00,42.7,39.7,29.96,West,270,2.0,2.7,89,0.00,,,0.00,WUHU216HW,2013-02-21 22:55:00,
2013-02-21 15:00:00,42.8,39.9,29.96,SSE,158,0.9,3.4,89,0.00,,,0.00,WUHU216HW,2013-02-21 23:00:00,
2013-02-21 15:05:00,42.8,39.5,29.96,NE,45,1.8,3.4,88,0.00,,,0.00,WUHU216HW,2013-02-21 23:05:00,
2013-02-21 15:10:00,42.8,39.5,29.96,SSE,158,1.1,2.9,88,0.00,,,0.00,WUHU216HW,2013-02-21 23:10:00,
2013-02-21 15:15:00,42.8,39.3,29.96,West,270,2.5,2.9,87,0.00,,,0.00,WUHU216HW,2013-02-21 23:15:00,
2013-02-21 15:20:00,42.8,39.3,29.96,WSW,248,2.9,7.6,87,0.00,,,0.00,WUHU216HW,2013-02-21 23:20:00,
2013-02-21 15:25:00,43.0,39.4,29.96,SW,225,2.2,7.6,87,0.00,,,0.00,WUHU216HW,2013-02-21 23:25:00,
2013-02-21 15:30:00,43.0,39.4,29.96,WSW,248,1.1,4.5,87,0.00,,,0.00,WUHU216HW,2013-02-21 23:30:00,
2013-02-21 15:35:00,43.0,39.1,29.96,WSW,248,1.3,4.5,86,0.00,,,0.00,WUHU216HW,2013-02-21 23:35:00,
2013-02-21 15:40:00,43.0,39.1,29.96,SSW,203,2.5,8.5,86,0.00,,,0.00,WUHU216HW,2013-02-21 23:40:00,
2013-02-21 15:45:00,43.0,39.1,29.96,West,270,1.1,8.5,86,0.00,,,0.00,WUHU216HW,2013-02-21 23:45:00,
2013-02-21 15:50:00,43.0,39.1,29.96,SSE,158,3.1,4.0,86,0.00,,,0.00,WUHU216HW,2013-02-21 23:50:00,
2013-02-21 15:55:00,43.0,39.1,29.96,WSW,248,0.9,3.4,86,0.00,,,0.00,WUHU216HW,2013-02-21 23:55:00,
2013-02-21 16:00:00,43.0,39.1,29.96,South,180,0.4,3.4,86,0.00,,,0.00,WUHU216HW,2013-02-22 00:00:00,
2013-02-21 16:05:00,43.0,39.1,29.96,West,270,2.5,2.9,86,0.00,,,0.00,WUHU216HW,2013-02-22 00:05:00,
2013-02-21 16:10:00,43.0,39.1,29.96,East,90,1.1,5.4,86,0.00,,,0.00,WUHU216HW,2013-02-22 00:10:00,
2013-02-21 16:15:00,43.0,39.1,29.97,WSW,248,3.8,5.4,86,0.00,,,0.00,WUHU216HW,2013-02-22 00:15:00,
2013-02-21 16:20:00,43.2,39.2,29.96,SE,135,1.1,3.8,86,0.00,,,0.00,WUHU216HW,2013-02-22 00:20:00,
2013-02-21 16:25:00,43.2,39.2,29.96,SSW,203,0.7,3.8,86,0.00,,,0.00,WUHU216HW,2013-02-22 00:25:00,
2013-02-21 16:30:00,43.2,39.2,29.97,ESE,113,1.8,3.8,86,0.00,,,0.00,WUHU216HW,2013-02-22 00:30:00,
2013-02-21 16:35:00,43.2,39.6,29.96,South,180,1.8,4.0,87,0.00,,,0.00,WUHU216HW,2013-02-22 00:35:00,
2013-02-21 16:40:00,43.4,39.8,29.97,SW,225,0.4,4.0,87,0.00,,,0.00,WUHU216HW,2013-02-22 00:40:00,
2013-02-21 16:45:00,43.4,39.8,29.96,WSW,248,2.0,2.9,87,0.00,,,0.00,WUHU216HW,2013-02-22 00:45:00,
2013-02-21 16:50:00,43.4,39.8,29.96,WSW,248,3.4,3.4,87,0.00,,,0.00,WUHU216HW,2013-02-22 00:50:00,
2013-02-21 16:55:00,43.6,40.0,29.96,SE,135,1.1,3.4,87,0.00,,,0.00,WUHU216HW,2013-02-22 00:55:00,
2013-02-21 17:00:00,43.6,40.0,29.96,SW,225,3.4,3.4,87,0.00,,,0.00,WUHU216HW,2013-02-22 01:00:00,
2013-02-21 17:05:00,43.6,40.0,29.96,ESE,113,1.6,3.4,87,0.00,,,0.00,WUHU216HW,2013-02-22 01:05:00,
2013-02-21 17:10:00,43.6,40.0,29.97,WSW,248,2.2,2.7,87,0.00,,,0.00,WUHU216HW,2013-02-22 01:10:00,
2013-02-21 17:15:00,43.6,40.0,29.97,SSW,203,0.7,2.2,87,0.00,,,0.00,WUHU216HW,2013-02-22 01:15:00,
2013-02-21 17:20:00,43.6,40.0,29.97,SSW,203,1.8,4.0,87,0.00,,,0.00,WUHU216HW,2013-02-22 01:20:00,
2013-02-21 17:25:00,43.6,40.0,29.98,SSE,158,1.1,4.0,87,0.00,,,0.00,WUHU216HW,2013-02-22 01:25:00,
2013-02-21 17:30:00,43.6,40.0,29.98,WSW,248,2.5,2.5,87,0.00,,,0.00,WUHU216HW,2013-02-22 01:30:00,
2013-02-21 17:35:00,43.6,40.0,29.99,NNW,338,0.7,3.8,87,0.00,,,0.00,WUHU216HW,2013-02-22 01:35:00,
2013-02-21 17:40:00,43.6,40.0,29.98,SSE,158,2.5,4.3,87,0.00,,,0.00,WUHU216HW,2013-02-22 01:40:00,
2013-02-21 17:45:00,43.7,40.2,29.99,WSW,248,2.7,4.3,87,0.00,,,0.00,WUHU216HW,2013-02-22 01:45:00,
2013-02-21 17:50:00,43.7,40.2,29.99,West,270,5.4,5.4,87,0.00,,,0.00,WUHU216HW,2013-02-22 01:50:00,
2013-02-21 17:55:00,43.7,40.2,29.99,SSE,158,4.5,5.4,87,0.00,,,0.00,WUHU216HW,2013-02-22 01:55:00,
2013-02-21 18:00:00,43.7,40.2,30.00,SSE,158,2.5,4.5,87,0.00,,,0.00,WUHU216HW,2013-02-22 02:00:00,
2013-02-21 18:05:00,43.7,40.2,29.99,WSW,248,1.3,3.8,87,0.00,,,0.00,WUHU216HW,2013-02-22 02:05:00,
2013-02-21 18:10:00,43.7,40.2,29.99,WSW,248,1.1,3.4,87,0.00,,,0.00,WUHU216HW,2013-02-22 02:10:00,
2013-02-21 18:15:00,43.7,40.2,29.99,SW,225,0.2,1.6,87,0.00,,,0.00,WUHU216HW,2013-02-22 02:15:00,
2013-02-21 18:20:00,43.7,40.2,29.99,WNW,293,0.7,2.0,87,0.00,,,0.00,WUHU216HW,2013-02-22 02:20:00,
2013-02-21 18:25:00,43.7,40.2,29.99,SW,225,3.4,3.4,87,0.00,,,0.00,WUHU216HW,2013-02-22 02:25:00,
2013-02-21 18:30:00,43.7,40.4,29.99,SE,135,3.1,3.4,88,0.00,,,0.00,WUHU216HW,2013-02-22 02:30:00,
2013-02-21 18:35:00,43.7,40.4,29.99,West,270,4.5,4.5,88,0.00,,,0.00,WUHU216HW,2013-02-22 02:35:00,
2013-02-21 18:40:00,43.7,40.4,29.99,WSW,248,1.3,4.5,88,0.00,,,0.00,WUHU216HW,2013-02-22 02:40:00,
2013-02-21 18:45:00,43.6,40.2,29.98,SW,225,0.9,1.8,88,0.00,,,0.00,WUHU216HW,2013-02-22 02:45:00,
2013-02-21 18:50:00,43.6,40.2,29.98,WSW,248,1.8,2.0,88,0.00,,,0.00,WUHU216HW,2013-02-22 02:50:00,
2013-02-21 18:55:00,43.6,40.2,29.98,SW,225,1.8,2.0,88,0.00,,,0.00,WUHU216HW,2013-02-22 02:55:00,
2013-02-21 19:00:00,43.6,40.2,29.98,WSW,248,2.5,2.5,88,0.00,,,0.00,WUHU216HW,2013-02-22 03:00:00,
2013-02-21 19:05:00,43.6,40.2,29.98,West,270,1.3,2.7,88,0.00,,,0.00,WUHU216HW,2013-02-22 03:05:00,
2013-02-21 19:10:00,43.6,40.2,29.98,SSW,203,1.1,2.7,88,0.00,,,0.00,WUHU216HW,2013-02-22 03:10:00,
2013-02-21 19:15:00,43.6,40.2,29.98,SW,225,2.5,2.7,88,0.00,,,0.00,WUHU216HW,2013-02-22 03:15:00,
2013-02-21 19:20:00,43.7,40.4,29.98,SW,225,0.4,2.5,88,0.00,,,0.00,WUHU216HW,2013-02-22 03:20:00,
2013-02-21 19:25:00,43.7,40.4,29.98,SW,225,0.4,2.5,88,0.00,,,0.00,WUHU216HW,2013-02-22 03:25:00,
2013-02-21 19:30:00,43.7,40.4,29.98,West,270,0.2,2.7,88,0.00,,,0.00,WUHU216HW,2013-02-22 03:30:00,
2013-02-21 19:35:00,43.7,40.4,29.98,West,270,2.9,3.8,88,0.00,,,0.00,WUHU216HW,2013-02-22 03:35:00,
2013-02-21 19:40:00,43.7,40.4,29.98,SSE,158,0.0,3.8,88,0.00,,,0.00,WUHU216HW,2013-02-22 03:40:00,
2013-02-21 19:45:00,43.7,40.4,29.98,SW,225,0.9,1.6,88,0.00,,,0.00,WUHU216HW,2013-02-22 03:45:00,
2013-02-21 19:50:00,43.7,40.4,29.98,South,180,1.8,1.8,88,0.00,,,0.00,WUHU216HW,2013-02-22 03:50:00,
2013-02-21 19:55:00,43.7,40.4,29.98,SW,225,0.9,1.8,88,0.00,,,0.00,WUHU216HW,2013-02-22 03:55:00,
2013-02-21 20:00:00,43.7,40.4,29.98,SE,135,1.1,2.0,88,0.00,,,0.00,WUHU216HW,2013-02-22 04:00:00,
2013-02-21 20:05:00,43.7,40.4,29.98,WSW,248,0.9,2.7,88,0.00,,,0.00,WUHU216HW,2013-02-22 04:05:00,
2013-02-21 20:10:00,43.7,40.4,29.98,WSW,248,1.8,3.8,88,0.00,,,0.00,WUHU216HW,2013-02-22 04:10:00,
2013-02-21 20:15:00,43.7,40.4,29.98,WSW,248,2.0,3.8,88,0.00,,,0.00,WUHU216HW,2013-02-22 04:15:00,
2013-02-21 20:20:00,43.7,40.4,29.98,South,180,0.7,2.9,88,0.00,,,0.00,WUHU216HW,2013-02-22 04:20:00,
2013-02-21 20:25:00,43.7,40.4,29.98,WNW,293,3.8,3.8,88,0.00,,,0.00,WUHU216HW,2013-02-22 04:25:00,
2013-02-21 20:30:00,43.7,40.4,29.99,WSW,248,0.4,4.5,88,0.00,,,0.00,WUHU216HW,2013-02-22 04:30:00,
2013-02-21 20:35:00,43.7,40.2,29.99,West,270,3.4,4.7,87,0.00,,,0.00,WUHU216HW,2013-02-22 04:35:00,
2013-02-21 20:40:00,43.9,40.3,29.99,SSW,203,2.0,4.7,87,0.00,,,0.00,WUHU216HW,2013-02-22 04:40:00,
2013-02-21 20:45:00,43.9,40.3,30.00,SW,225,0.9,4.0,87,0.00,,,0.00,WUHU216HW,2013-02-22 04:45:00,
2013-02-21 20:50:00,43.9,40.3,30.00,SW,225,1.6,4.0,87,0.00,,,0.00,WUHU216HW,2013-02-22 04:50:00,
2013-02-21 20:55:00,43.9,40.3,30.00,SE,135,0.2,2.5,87,0.00,,,0.00,WUHU216HW,2013-02-22 04:55:00,
2013-02-21 21:00:00,43.9,40.3,30.00,WSW,248,1.1,3.6,87,0.00,,,0.00,WUHU216HW,2013-02-22 05:00:00,
2013-02-21 21:05:00,43.9,40.3,30.00,WSW,248,7.2,7.2,87,0.00,,,0.00,WUHU216HW,2013-02-22 05:05:00,
2013-02-21 21:10:00,43.9,40.3,30.00,West,270,1.8,7.2,87,0.00,,,0.00,WUHU216HW,2013-02-22 05:10:00,
2013-02-21 21:15:00,43.9,40.3,30.00,SSW,203,0.7,5.6,87,0.00,,,0.00,WUHU216HW,2013-02-22 05:15:00,
2013-02-21 21:20:00,43.9,40.3,30.00,SSW,203,2.5,4.5,87,0.00,,,0.00,WUHU216HW,2013-02-22 05:20:00,
2013-02-21 21:25:00,43.9,40.3,30.01,NW,315,2.7,3.8,87,0.00,,,0.00,WUHU216HW,2013-02-22 05:25:00,
2013-02-21 21:30:00,43.9,40.3,30.01,SSW,203,3.4,4.9,87,0.00,,,0.00,WUHU216HW,2013-02-22 05:30:00,
2013-02-21 21:35:00,43.9,40.3,30.00,WSW,248,0.7,5.4,87,0.00,,,0.00,WUHU216HW,2013-02-22 05:35:00,
2013-02-21 21:40:00,43.9,40.3,30.01,NNW,338,2.0,5.4,87,0.00,,,0.00,WUHU216HW,2013-02-22 05:40:00,
2013-02-21 21:45:00,43.7,40.2,30.01,West,270,4.5,4.7,87,0.00,,,0.00,WUHU216HW,2013-02-22 05:45:00,
2013-02-21 21:50:00,43.7,40.2,30.01,WSW,248,3.1,4.7,87,0.00,,,0.00,WUHU216HW,2013-02-22 05:50:00,
2013-02-21 21:55:00,43.7,40.2,30.01,SW,225,2.9,4.7,87,0.00,,,0.00,WUHU216HW,2013-02-22 05:55:00,
2013-02-21 22:00:00,43.7,40.2,30.01,WSW,248,3.4,4.7,87,0.00,,,0.00,WUHU216HW,2013-02-22 06:00:00,
2013-02-21 22:05:00,43.7,40.2,30.01,SW,225,6.9,6.9,87,0.00,,,0.00,WUHU216HW,2013-02-22 06:05:00,
2013-02-21 22:10:00,43.7,40.2,30.01,WNW,293,3.4,6.9,87,0.00,,,0.00,WUHU216HW,2013-02-22 06:10:00,
2013-02-21 22:15:00,43.6,40.0,30.00,WSW,248,1.8,4.9,87,0.00,,,0.00,WUHU216HW,2013-02-22 06:15:00,
2013-02-21 22:20:00,43.6,40.0,30.00,WSW,248,3.4,3.4,87,0.00,,,0.00,WUHU216HW,2013-02-22 06:20:00,
2013-02-21 22:25:00,43.6,40.0,30.00,West,270,2.5,3.4,87,0.00,,,0.00,WUHU216HW,2013-02-22 06:25:00,
2013-02-21 22:30:00,43.6,40.0,30.00,SW,225,1.1,2.7,87,0.00,,,0.00,WUHU216HW,2013-02-22 06:30:00,
2013-02-21 22:35:00,43.6,40.0,30.00,WSW,248,0.4,4.5,87,0.00,,,0.00,WUHU216HW,2013-02-22 06:35:00,
2013-02-21 22:40:00,43.6,40.0,29.99,SSW,203,1.6,4.5,87,0.00,,,0.00,WUHU216HW,2013-02-22 06:40:00,
2013-02-21 22:45:00,43.6,40.0,29.99,SW,225,0.2,2.5,87,0.00,,,0.00,WUHU216HW,2013-02-22 06:45:00,
2013-02-21 22:50:00,43.6,40.2,29.99,South,180,0.4,2.5,88,0.00,,,0.00,WUHU216HW,2013-02-22 06:50:00,
2013-02-21 22:55:00,43.6,40.2,29.99,WSW,248,1.8,2.2,88,0.00,,,0.00,WUHU216HW,2013-02-22 06:55:00,
2013-02-21 23:00:00,43.6,40.2,29.99,ESE,113,0.9,2.2,88,0.00,,,0.00,WUHU216HW,2013-02-22 07:00:00,
2013-02-21 23:05:00,43.6,40.2,29.99,WSW,248,3.6,3.6,88,0.00,,,0.00,WUHU216HW,2013-02-22 07:05:00,
2013-02-21 23:10:00,43.6,40.2,29.99,NW,315,2.9,6.5,88,0.00,,,0.00,WUHU216HW,2013-02-22 07:10:00,
2013-02-21 23:15:00,43.6,40.2,29.99,South,180,1.8,6.5,88,0.00,,,0.00,WUHU216HW,2013-02-22 07:15:00,
2013-02-21 23:20:00,43.6,40.2,29.99,WSW,248,2.2,4.5,88,0.00,,,0.00,WUHU216HW,2013-02-22 07:20:00,
2013-02-21 23:25:00,43.6,40.2,29.99,SSE,158,2.5,3.4,88,0.00,,,0.00,WUHU216HW,2013-02-22 07:25:00,
2013-02-21 23:30:00,43.6,40.2,29.99,SSE,158,2.9,3.4,88,0.00,,,0.00,WUHU216HW,2013-02-22 07:30:00,
2013-02-21 23:35:00,43.6,40.2,29.99,West,270,3.4,3.4,88,0.00,,,0.00,WUHU216HW,2013-02-22 07:35:00,
2013-02-21 23:40:00,43.6,40.2,29.99,SE,135,1.1,3.4,88,0.00,,,0.00,WUHU216HW,2013-02-22 07:40:00,
2013-02-21 23:45:00,43.6,40.2,29.99,SE,135,0.9,3.4,88,0.00,,,0.00,WUHU216HW,2013-02-22 07:45:00,
2013-02-21 23:50:00,43.6,40.2,29.99,SE,135,0.4,2.2,88,0.00,,,0.00,WUHU216HW,2013-02-22 07:50:00,
2013-02-21 23:55:00,43.6,40.2,29.99,WSW,248,4.0,4.0,88,0.00,,,0.00,WUHU216HW,2013-02-22 07:55:00,